Time;durP1;ratioP1;P1;durP2;ratioP2;P2;SDS_P1;SDS_P2;PMS_P1;PMS_P2;Temp;Humidity;BMP_temperature;BMP_pressure;BME280_temperature;BME280_humidity;BME280_pressure;Samples;Min_cycle;Max_cycle;Signal;HPM_P1;HPM_P2
2021/04/15 00:01:40;;;;;;;1999.90;999.90;;;3.70;99.90;;;;;;5014732;28;20533;-83
2021/04/15 00:04:07;;;;;;;1999.90;999.90;;;3.60;99.90;;;;;;5015165;28;20193;-83
2021/04/15 00:06:33;;;;;;;1999.90;999.90;;;3.50;99.90;;;;;;5014844;28;20202;-83
2021/04/15 00:09:05;;;;;;;1999.90;999.90;;;3.40;99.90;;;;;;5014749;28;20538;-83
2021/04/15 00:11:33;;;;;;;1999.90;999.90;;;3.30;99.90;;;;;;5015000;28;20396;-83
2021/04/15 00:14:00;;;;;;;1999.90;999.90;;;3.20;99.90;;;;;;5014397;28;20170;-83
2021/04/15 00:16:28;;;;;;;1999.90;999.90;;;3.20;99.90;;;;;;4980396;28;20193;-83
2021/04/15 00:18:54;;;;;;;1999.90;999.90;;;3.30;99.90;;;;;;4996845;28;20174;-83
2021/04/15 00:21:20;;;;;;;1999.90;999.90;;;3.40;99.90;;;;;;5014618;28;20169;-83
2021/04/15 00:23:46;;;;;;;1999.90;999.90;;;3.30;99.90;;;;;;5014889;28;20201;-83
2021/04/15 00:26:14;;;;;;;1999.90;999.90;;;3.20;99.90;;;;;;5014099;28;20225;-83
2021/04/15 00:28:40;;;;;;;1999.90;999.90;;;3.10;99.90;;;;;;5014300;28;20218;-83
2021/04/15 00:31:07;;;;;;;1999.90;999.90;;;3.00;99.90;;;;;;4997386;28;20260;-83
2021/04/15 00:33:32;;;;;;;1999.90;999.90;;;3.00;99.90;;;;;;5014610;28;20169;-83
2021/04/15 00:35:59;;;;;;;1999.90;999.90;;;3.00;99.90;;;;;;5014268;28;20559;-83
2021/04/15 00:38:26;;;;;;;1999.90;999.90;;;2.90;99.90;;;;;;4996523;28;20174;-83
2021/04/15 00:40:53;;;;;;;1999.90;999.90;;;2.80;99.90;;;;;;5016182;28;20169;-83
2021/04/15 00:43:22;;;;;;;1999.90;999.90;;;2.80;99.90;;;;;;5018177;28;20364;-83
2021/04/15 00:45:50;;;;;;;1999.90;999.90;;;2.80;99.90;;;;;;5018593;28;20201;-83
2021/04/15 00:48:41;;;;;;;1999.90;999.90;;;2.80;99.90;;;;;;5018756;28;20189;-83
2021/04/15 00:51:29;;;;;;;1999.90;999.90;;;2.70;99.90;;;;;;5018427;28;20158;-83
2021/04/15 00:54:03;;;;;;;1999.90;999.90;;;2.60;99.90;;;;;;5000072;28;20549;-83
2021/04/15 00:56:30;;;;;;;1999.90;999.90;;;2.50;99.90;;;;;;5018053;28;20181;-83
2021/04/15 00:58:57;;;;;;;1999.90;999.90;;;2.50;99.90;;;;;;5018062;28;20533;-83
2021/04/15 01:01:23;;;;;;;1999.90;999.90;;;2.60;99.90;;;;;;5000296;28;20169;-83
2021/04/15 01:03:49;;;;;;;1999.90;999.90;;;2.50;99.90;;;;;;5017995;28;20170;-83
2021/04/15 01:06:14;;;;;;;1999.90;999.90;;;2.50;99.90;;;;;;5017534;28;20202;-83
2021/04/15 01:08:41;;;;;;;1999.90;999.90;;;2.50;99.90;;;;;;5017895;28;20495;-83
2021/04/15 01:11:09;;;;;;;1999.90;999.90;;;2.40;99.90;;;;;;5017741;28;20709;-83
2021/04/15 01:13:52;;;;;;;1999.90;999.90;;;2.40;99.90;;;;;;5017497;28;20197;-83
2021/04/15 01:16:39;;;;;;;1999.90;999.90;;;2.30;99.90;;;;;;5017827;28;20185;-83
2021/04/15 01:19:22;;;;;;;1999.90;999.90;;;2.30;99.90;;;;;;5017501;28;20154;-83
2021/04/15 01:22:20;;;;;;;1999.90;999.90;;;2.30;99.90;;;;;;5017518;28;20173;-83
2021/04/15 01:25:07;;;;;;;1999.90;999.90;;;2.30;99.90;;;;;;5017943;28;20280;-83
2021/04/15 01:27:45;;;;;;;1999.90;999.90;;;2.20;99.90;;;;;;5017216;28;20224;-83
2021/04/15 01:30:15;;;;;;;1999.90;999.90;;;2.20;99.90;;;;;;5017363;28;20184;-83
2021/04/15 01:33:08;;;;;;;1999.90;999.90;;;2.30;99.90;;;;;;5017418;28;20165;-83
2021/04/15 01:35:43;;;;;;;1999.90;999.90;;;2.20;99.90;;;;;;5017701;28;20177;-83
2021/04/15 01:38:36;;;;;;;1999.90;999.90;;;2.20;99.90;;;;;;4999963;28;20600;-83
2021/04/15 01:41:25;;;;;;;1999.90;999.90;;;2.20;99.90;;;;;;5016960;28;20657;-83
2021/04/15 01:43:55;;;;;;;1999.90;999.90;;;2.20;99.90;;;;;;5000244;28;20625;-83
2021/04/15 01:46:26;;;;;;;1999.90;999.90;;;2.20;99.90;;;;;;5017149;28;20201;-83
2021/04/15 01:48:54;;;;;;;1999.90;999.90;;;2.20;99.90;;;;;;5017333;28;20638;-83
2021/04/15 01:51:24;;;;;;;1999.90;999.90;;;2.10;99.90;;;;;;5016536;28;20172;-83
2021/04/15 01:54:03;;;;;;;1999.90;999.90;;;2.00;99.90;;;;;;5016519;28;20248;-83
2021/04/15 01:56:39;;;;;;;1999.90;999.90;;;2.00;99.90;;;;;;4999785;28;20196;-83
2021/04/15 01:59:25;;;;;;;1999.90;999.90;;;1.90;99.90;;;;;;5016961;28;20154;-83
2021/04/15 02:01:55;;;;;;;1999.90;999.90;;;1.90;99.90;;;;;;4999270;28;20241;-83
2021/04/15 02:04:39;;;;;;;1999.90;999.90;;;1.90;99.90;;;;;;4999216;28;20174;-83
2021/04/15 02:07:11;;;;;;;1999.90;999.90;;;1.80;99.90;;;;;;5017267;28;20247;-82
2021/04/15 02:09:39;;;;;;;1999.90;999.90;;;1.80;99.90;;;;;;4999598;28;20177;-83
2021/04/15 02:12:09;;;;;;;1999.90;999.90;;;1.80;99.90;;;;;;5017451;28;20196;-83
2021/04/15 02:14:40;;;;;;;1999.90;999.90;;;1.70;99.90;;;;;;4999580;28;20154;-83
2021/04/15 02:17:07;;;;;;;1999.90;999.90;;;1.80;99.90;;;;;;5016940;28;20560;-83
2021/04/15 02:19:48;;;;;;;1999.90;999.90;;;1.80;99.90;;;;;;4999637;28;20173;-82
2021/04/15 02:22:27;;;;;;;1999.90;999.90;;;1.80;99.90;;;;;;4999748;28;20162;-83
2021/04/15 02:25:31;;;;;;;1999.90;999.90;;;1.80;99.90;;;;;;5017672;28;20185;-83
2021/04/15 02:28:25;;;;;;;1999.90;999.90;;;1.80;99.90;;;;;;5016849;28;20644;-83
2021/04/15 02:31:15;;;;;;;1999.90;999.90;;;1.80;99.90;;;;;;5017010;28;20182;-82
2021/04/15 02:33:56;;;;;;;1999.90;999.90;;;1.70;99.90;;;;;;4999140;28;20569;-82
2021/04/15 02:36:25;;;;;;;1999.90;999.90;;;1.70;99.90;;;;;;5016165;28;20239;-82
2021/04/15 02:38:58;;;;;;;1999.90;999.90;;;1.60;99.90;;;;;;4999553;28;20602;-83
2021/04/15 02:41:30;;;;;;;1999.90;999.90;;;1.70;99.90;;;;;;5016216;28;20193;-83
2021/04/15 02:44:05;;;;;;;1999.90;999.90;;;1.70;99.90;;;;;;4998813;28;20166;-83
2021/04/15 02:46:42;;;;;;;1999.90;999.90;;;1.60;99.90;;;;;;5016250;28;20193;-83
2021/04/15 02:49:11;;;;;;;1999.90;999.90;;;1.60;99.90;;;;;;4998341;28;20161;-83
2021/04/15 02:52:02;;;;;;;1999.90;999.90;;;1.60;99.90;;;;;;5015823;28;20629;-83
2021/04/15 02:54:44;;;;;;;1999.90;999.90;;;1.60;99.90;;;;;;4998512;28;20609;-83
2021/04/15 02:57:23;;;;;;;1999.90;999.90;;;1.60;99.90;;;;;;5015942;28;20699;-83
2021/04/15 02:59:54;;;;;;;1999.90;999.90;;;1.60;99.90;;;;;;5015838;28;20154;-83
2021/04/15 03:02:25;;;;;;;1999.90;999.90;;;1.60;99.90;;;;;;5015300;28;20170;-83
2021/04/15 03:04:57;;;;;;;1999.90;999.90;;;1.60;99.90;;;;;;4997399;28;20168;-83
2021/04/15 03:07:26;;;;;;;1999.90;999.90;;;1.50;99.90;;;;;;5015556;28;20181;-83
2021/04/15 03:09:53;;;;;;;1999.90;999.90;;;1.50;99.90;;;;;;4998096;28;20581;-83
2021/04/15 03:12:32;;;;;;;1999.90;999.90;;;1.50;99.90;;;;;;4997816;28;20173;-83
2021/04/15 03:15:02;;;;;;;1999.90;999.90;;;1.50;99.90;;;;;;5015306;28;20657;-82
2021/04/15 03:17:34;;;;;;;1999.90;999.90;;;1.50;99.90;;;;;;4997791;28;20213;-83
2021/04/15 03:20:05;;;;;;;1999.90;999.90;;;1.40;99.90;;;;;;5015403;28;20150;-83
2021/04/15 03:22:50;;;;;;;1999.90;999.90;;;1.40;99.90;;;;;;5015272;28;20153;-83
2021/04/15 03:25:16;;;;;;;1999.90;999.90;;;1.40;99.90;;;;;;5015183;28;20218;-83
2021/04/15 03:28:02;;;;;;;1999.90;999.90;;;1.40;99.90;;;;;;5014892;28;20186;-82
2021/04/15 03:30:28;;;;;;;1999.90;999.90;;;1.40;99.90;;;;;;4997305;28;20185;-83
2021/04/15 03:33:11;;;;;;;1999.90;999.90;;;1.40;99.90;;;;;;4997246;28;20174;-82
2021/04/15 03:35:46;;;;;;;1999.90;999.90;;;1.30;99.90;;;;;;4997243;28;20170;-83
2021/04/15 03:38:17;;;;;;;1999.90;999.90;;;1.30;99.90;;;;;;5015119;28;20552;-82
2021/04/15 03:41:02;;;;;;;1999.90;999.90;;;1.30;99.90;;;;;;5015155;28;20614;-83
2021/04/15 03:43:36;;;;;;;1999.90;999.90;;;1.30;99.90;;;;;;5014989;28;20177;-82
2021/04/15 03:46:05;;;;;;;1999.90;999.90;;;1.30;99.90;;;;;;5014711;28;20153;-82
2021/04/15 03:48:55;;;;;;;1999.90;999.90;;;1.30;99.90;;;;;;5014890;28;20174;-82
2021/04/15 03:51:25;;;;;;;1999.90;999.90;;;1.30;99.90;;;;;;5014864;28;20164;-82
2021/04/15 03:54:02;;;;;;;1999.90;999.90;;;1.20;99.90;;;;;;4997170;28;20201;-82
2021/04/15 03:56:34;;;;;;;1999.90;999.90;;;1.20;99.90;;;;;;5014615;28;20232;-82
2021/04/15 03:59:36;;;;;;;1999.90;999.90;;;1.30;99.90;;;;;;5014914;28;20165;-82
2021/04/15 04:02:09;;;;;;;1999.90;999.90;;;1.30;99.90;;;;;;4990098;28;20177;-83
2021/04/15 04:04:43;;;;;;;1999.90;999.90;;;1.30;99.90;;;;;;5015010;28;20156;-82
2021/04/15 04:07:24;;;;;;;1999.90;999.90;;;1.30;99.90;;;;;;5014827;28;20276;-82
2021/04/15 04:09:57;;;;;;;1999.90;999.90;;;1.30;99.90;;;;;;5014509;28;20162;-82
2021/04/15 04:13:00;;;;;;;1999.90;999.90;;;1.20;99.90;;;;;;5014694;28;20209;-82
2021/04/15 04:15:30;;;;;;;1999.90;999.90;;;1.10;99.90;;;;;;5011343;28;20178;-82
2021/04/15 04:18:02;;;;;;;1999.90;999.90;;;1.10;99.90;;;;;;5014529;28;20236;-82
2021/04/15 04:20:42;;;;;;;1999.90;999.90;;;1.10;99.90;;;;;;5014556;28;20167;-82
2021/04/15 04:23:34;;;;;;;1999.90;999.90;;;1.10;99.90;;;;;;5014999;28;20160;-82
2021/04/15 04:26:38;;;;;;;1999.90;999.90;;;1.10;99.90;;;;;;5014841;28;20154;-82
2021/04/15 04:29:07;;;;;;;1999.90;999.90;;;1.10;99.90;;;;;;4997451;28;20219;-82
2021/04/15 04:31:39;;;;;;;1999.90;999.90;;;1.10;99.90;;;;;;5014752;28;20169;-82
2021/04/15 04:34:11;;;;;;;1999.90;999.90;;;1.10;99.90;;;;;;4996883;28;20173;-82
2021/04/15 04:36:49;;;;;;;1999.90;999.90;;;1.10;99.90;;;;;;4997044;28;20684;-82
2021/04/15 04:39:20;;;;;;;1999.90;999.90;;;1.10;99.90;;;;;;4996577;28;20694;-82
2021/04/15 04:41:53;;;;;;;1999.90;999.90;;;1.00;99.90;;;;;;5014287;28;20173;-82
2021/04/15 04:44:44;;;;;;;1999.90;999.90;;;1.00;99.90;;;;;;5014752;28;20205;-82
2021/04/15 04:47:30;;;;;;;1999.90;999.90;;;1.00;99.90;;;;;;5005477;28;20197;-82
2021/04/15 04:50:28;;;;;;;1999.90;999.90;;;1.00;99.90;;;;;;4997024;28;20174;-82
2021/04/15 04:53:23;;;;;;;1999.90;999.90;;;1.00;99.90;;;;;;5014279;28;20253;-82
2021/04/15 04:56:04;;;;;;;1999.90;999.90;;;1.00;99.90;;;;;;4996710;28;20216;-82
2021/04/15 04:58:30;;;;;;;1999.90;999.90;;;1.00;99.90;;;;;;5014063;28;20249;-82
2021/04/15 05:00:57;;;;;;;1999.90;999.90;;;1.00;99.90;;;;;;5013891;28;20201;-82
2021/04/15 05:03:27;;;;;;;1999.90;999.90;;;1.00;99.90;;;;;;5014085;28;20162;-82
2021/04/15 05:06:23;;;;;;;1999.90;999.90;;;1.00;99.90;;;;;;5014157;28;20649;-82
2021/04/15 05:08:54;;;;;;;1999.90;999.90;;;1.00;99.90;;;;;;5012699;28;20182;-82
2021/04/15 05:11:21;;;;;;;1999.90;999.90;;;1.00;99.90;;;;;;5014292;28;20216;-82
2021/04/15 05:13:53;;;;;;;1999.90;999.90;;;1.00;99.90;;;;;;4996626;28;20266;-82
2021/04/15 05:16:18;;;;;;;1999.90;999.90;;;1.00;99.90;;;;;;4996105;28;20205;-82
2021/04/15 05:18:44;;;;;;;1999.90;999.90;;;1.10;99.90;;;;;;5014192;28;20196;-82
2021/04/15 05:21:22;;;;;;;1999.90;999.90;;;1.10;99.90;;;;;;5014546;28;20253;-82
2021/04/15 05:23:56;;;;;;;1999.90;999.90;;;1.10;99.90;;;;;;5014782;28;20223;-82
2021/04/15 05:26:27;;;;;;;1999.90;999.90;;;1.20;99.90;;;;;;5015738;28;20182;-82
2021/04/15 05:28:57;;;;;;;1999.90;999.90;;;1.20;99.90;;;;;;5109012;23;20205;-78
2021/04/15 05:31:26;;;;;;;1999.90;999.90;;;1.30;99.90;;;;;;5023655;28;20252;-79
2021/04/15 05:33:53;;;;;;;1999.90;999.90;;;1.40;99.90;;;;;;5005137;28;20162;-78
2021/04/15 05:36:35;;;;;;;1999.90;999.90;;;1.40;99.90;;;;;;5023982;28;20206;-78
2021/04/15 05:39:02;;;;;;;1999.90;999.90;;;1.50;99.90;;;;;;5022872;28;20636;-79
2021/04/15 05:41:31;;;;;;;1999.90;999.90;;;1.50;99.90;;;;;;5022308;28;20176;-78
2021/04/15 05:44:03;;;;;;;1999.90;999.90;;;1.60;99.90;;;;;;5021853;28;20158;-78
2021/04/15 05:46:38;;;;;;;1999.90;999.90;;;1.70;99.90;;;;;;5005162;28;20193;-78
2021/04/15 05:49:05;;;;;;;1999.90;999.90;;;1.70;99.90;;;;;;5023889;28;20240;-78
2021/04/15 05:51:44;;;;;;;1999.90;999.90;;;1.80;99.90;;;;;;5005347;28;20166;-78
2021/04/15 05:54:13;;;;;;;1999.90;999.90;;;1.90;99.90;;;;;;5004983;28;20154;-78
2021/04/15 05:56:52;;;;;;;1999.90;999.90;;;2.00;99.90;;;;;;5023044;28;20221;-78
2021/04/15 05:59:56;;;;;;;1999.90;999.90;;;2.20;99.90;;;;;;5023251;28;20173;-78
2021/04/15 06:02:46;;;;;;;1999.90;999.90;;;2.30;99.90;;;;;;4985698;28;20237;-78
2021/04/15 06:05:22;;;;;;;1999.90;999.90;;;2.50;99.90;;;;;;5023425;28;20166;-78
2021/04/15 06:07:51;;;;;;;1999.90;999.90;;;2.70;99.90;;;;;;5005282;28;20263;-78
2021/04/15 06:10:21;;;;;;;1999.90;999.90;;;2.70;99.90;;;;;;5023230;28;20173;-79
2021/04/15 06:12:50;;;;;;;1999.90;999.90;;;2.80;99.90;;;;;;5025474;28;20162;-79
2021/04/15 06:15:42;;;;;;;1999.90;999.90;;;2.90;99.90;;;;;;5025343;28;20169;-79
2021/04/15 06:18:41;;;;;;;1999.90;999.90;;;3.00;99.90;;;;;;5022941;28;20688;-79
2021/04/15 06:21:14;;;;;;;1999.90;999.90;;;3.00;99.90;;;;;;5025051;28;20185;-79
2021/04/15 06:23:46;;;;;;;1999.90;999.90;;;3.10;99.90;;;;;;5024444;28;20180;-79
2021/04/15 06:26:29;;;;;;;1999.90;999.90;;;3.10;99.90;;;;;;5022753;28;20193;-79
2021/04/15 06:28:58;;;;;;;1999.90;999.90;;;3.20;99.90;;;;;;5024770;28;20182;-79
2021/04/15 06:31:24;;;;;;;1999.90;999.90;;;3.20;99.90;;;;;;5026362;28;20158;-79
2021/04/15 06:33:53;;;;;;;1999.90;999.90;;;3.30;99.90;;;;;;5011975;28;20205;-80
2021/04/15 06:36:28;;;;;;;1999.90;999.90;;;3.40;99.90;;;;;;5024037;28;20228;-79
2021/04/15 06:39:01;;;;;;;1999.90;999.90;;;3.50;99.90;;;;;;5024032;28;20157;-79
2021/04/15 06:41:49;;;;;;;1999.90;999.90;;;3.50;99.90;;;;;;5024349;28;20166;-79
2021/04/15 06:44:37;;;;;;;1999.90;999.90;;;3.60;99.90;;;;;;5024990;28;20181;-79
2021/04/15 06:47:11;;;;;;;1999.90;999.90;;;3.60;99.90;;;;;;5008325;28;20210;-79
2021/04/15 06:50:04;;;;;;;1999.90;999.90;;;3.60;99.90;;;;;;5027549;28;20184;-79
2021/04/15 06:52:36;;;;;;;1999.90;999.90;;;3.60;99.90;;;;;;5022257;28;20154;-79
2021/04/15 06:55:19;;;;;;;1999.90;999.90;;;3.70;99.90;;;;;;5007298;28;20189;-79
2021/04/15 06:58:09;;;;;;;1999.90;999.90;;;3.70;99.90;;;;;;5024188;28;20197;-79
2021/04/15 07:01:00;;;;;;;1999.90;999.90;;;3.80;99.90;;;;;;5023782;28;20150;-79
2021/04/15 07:04:00;;;;;;;1999.90;999.90;;;3.90;99.90;;;;;;5024313;28;20166;-79
2021/04/15 07:06:46;;;;;;;1999.90;999.90;;;4.00;99.90;;;;;;5024869;28;20190;-79
2021/04/15 07:09:27;;;;;;;1999.90;999.90;;;4.10;99.90;;;;;;5022508;28;20162;-79
2021/04/15 07:12:31;;;;;;;1999.90;999.90;;;4.10;99.90;;;;;;5022557;28;20212;-79
2021/04/15 07:15:02;;;;;;;1999.90;999.90;;;4.10;99.90;;;;;;5005154;28;20189;-79
2021/04/15 07:17:46;;;;;;;1999.90;999.90;;;4.20;99.90;;;;;;5023248;28;20194;-79
2021/04/15 07:20:49;;;;;;;1999.90;999.90;;;4.20;99.90;;;;;;5006722;28;20150;-79
2021/04/15 07:23:21;;;;;;;1999.90;999.90;;;4.30;99.90;;;;;;5024397;28;20166;-79
2021/04/15 07:26:24;;;;;;;1999.90;999.90;;;4.40;99.90;;;;;;5006946;28;20244;-79
2021/04/15 07:28:55;;;;;;;1999.90;999.90;;;4.40;99.90;;;;;;5023329;28;20173;-79
2021/04/15 07:32:07;;;;;;;1999.90;999.90;;;4.50;99.90;;;;;;5023484;28;20166;-79
2021/04/15 07:35:06;;;;;;;1999.90;999.90;;;4.50;99.90;;;;;;5023736;28;20182;-79
2021/04/15 07:37:55;;;;;;;1999.90;999.90;;;4.60;99.90;;;;;;5005078;28;20202;-79
2021/04/15 07:40:51;;;;;;;1999.90;999.90;;;4.70;99.90;;;;;;5023237;28;20142;-79
2021/04/15 07:43:59;;;;;;;1999.90;999.90;;;4.70;99.90;;;;;;5023925;28;20204;-80
2021/04/15 07:46:43;;;;;;;1999.90;999.90;;;4.60;99.90;;;;;;5006387;28;20190;-79
2021/04/15 07:49:30;;;;;;;1999.90;999.90;;;4.70;99.90;;;;;;5023140;28;20181;-79
2021/04/15 07:52:17;;;;;;;1999.90;999.90;;;4.60;99.90;;;;;;5023207;28;20272;-80
2021/04/15 07:55:01;;;;;;;1999.90;999.90;;;4.60;99.90;;;;;;5022533;28;20162;-79
2021/04/15 07:57:48;;;;;;;1999.90;999.90;;;4.60;99.90;;;;;;5004536;28;20208;-80
2021/04/15 08:00:20;;;;;;;1999.90;999.90;;;4.60;99.90;;;;;;5005397;28;20614;-78
2021/04/15 08:03:04;;;;;;;1999.90;999.90;;;4.60;99.90;;;;;;5004842;28;20208;-79
2021/04/15 08:06:01;;;;;;;1999.90;999.90;;;4.70;99.90;;;;;;5021190;28;20158;-79
2021/04/15 08:08:54;;;;;;;1999.90;999.90;;;4.70;99.90;;;;;;5021179;28;20151;-79
2021/04/15 08:11:41;;;;;;;1999.90;999.90;;;4.80;99.90;;;;;;5004030;28;20552;-79
2021/04/15 08:14:44;;;;;;;1999.90;999.90;;;5.00;99.90;;;;;;5003978;28;20629;-79
2021/04/15 08:17:31;;;;;;;1999.90;999.90;;;5.10;99.90;;;;;;5021431;28;20201;-79
2021/04/15 08:20:26;;;;;;;1999.90;999.90;;;5.10;99.90;;;;;;5021472;28;20150;-79
2021/04/15 08:22:54;;;;;;;1999.90;999.90;;;5.20;99.90;;;;;;5021306;28;20603;-79
2021/04/15 08:25:51;;;;;;;1999.90;999.90;;;5.20;99.90;;;;;;5020921;28;20185;-79
2021/04/15 08:28:23;;;;;;;1999.90;999.90;;;5.30;99.90;;;;;;5002749;28;20649;-79
2021/04/15 08:31:11;;;;;;;1999.90;999.90;;;5.40;99.90;;;;;;5020739;28;20158;-79
2021/04/15 08:34:24;;;;;;;1999.90;999.90;;;5.40;99.90;;;;;;5002252;28;20188;-80
2021/04/15 08:36:57;;;;;;;1999.90;999.90;;;5.50;99.90;;;;;;5012369;28;20268;-79
2021/04/15 08:39:37;;;;;;;1999.90;999.90;;;5.60;99.90;;;;;;5001338;28;20169;-79
2021/04/15 08:42:21;;;;;;;1999.90;999.90;;;5.60;99.90;;;;;;5018189;28;20614;-79
2021/04/15 08:45:04;;;;;;;1999.90;999.90;;;5.60;99.90;;;;;;5018921;28;20154;-79
2021/04/15 08:47:53;;;;;;;1999.90;999.90;;;5.60;99.90;;;;;;5001337;28;20257;-79
2021/04/15 08:50:42;;;;;;;1999.90;999.90;;;5.70;99.90;;;;;;5002085;28;20532;-79
2021/04/15 08:53:29;;;;;;;1999.90;999.90;;;5.70;99.90;;;;;;5006181;28;20210;-79
2021/04/15 08:56:06;;;;;;;1999.90;999.90;;;5.70;99.90;;;;;;5019850;28;20165;-79
2021/04/15 08:58:58;;;;;;;1999.90;999.90;;;5.70;99.90;;;;;;5021144;28;20146;-79
2021/04/15 09:01:30;;;;;;;1999.90;999.90;;;5.90;99.90;;;;;;5019685;28;20156;-78
2021/04/15 09:03:58;;;;;;;1999.90;999.90;;;6.00;99.90;;;;;;5022913;28;20151;-78
2021/04/15 09:06:44;;;;;;;1999.90;999.90;;;6.20;99.90;;;;;;5004174;28;20343;-78
2021/04/15 09:09:20;;;;;;;1999.90;999.90;;;6.40;99.90;;;;;;5005438;28;20162;-79
2021/04/15 09:12:06;;;;;;;1999.90;999.90;;;6.50;99.90;;;;;;5005674;28;20189;-79
2021/04/15 09:15:03;;;;;;;1999.90;999.90;;;6.70;99.90;;;;;;5006430;28;20173;-79
2021/04/15 09:17:36;;;;;;;1999.90;999.90;;;6.80;99.90;;;;;;5023211;28;20225;-79
2021/04/15 09:20:33;;;;;;;1999.90;999.90;;;6.90;99.90;;;;;;5005853;28;20692;-79
2021/04/15 09:22:59;;;;;;;1999.90;999.90;;;7.10;99.90;;;;;;5022873;28;20679;-79
2021/04/15 09:25:55;;;;;;;1999.90;999.90;;;7.20;99.90;;;;;;5006074;28;20257;-79
2021/04/15 09:28:52;;;;;;;1999.90;999.90;;;7.30;99.90;;;;;;5023858;28;20621;-79
2021/04/15 09:31:50;;;;;;;1999.90;999.90;;;7.40;99.90;;;;;;5005691;28;20189;-79
2021/04/15 09:34:48;;;;;;;1999.90;999.90;;;7.60;99.90;;;;;;5005587;28;20170;-79
2021/04/15 09:37:17;;;;;;;1999.90;999.90;;;7.60;99.60;;;;;;5005895;28;20288;-80
2021/04/15 09:39:56;;;;;;;1999.90;999.90;;;7.70;96.60;;;;;;5022847;28;20217;-79
2021/04/15 09:42:40;;;;;;;1999.90;999.90;;;7.80;99.20;;;;;;5007440;28;20161;-79
2021/04/15 09:45:21;;;;;;;1999.90;999.90;;;7.80;93.00;;;;;;5007285;28;20162;-79
2021/04/15 09:47:52;;;;;;;1999.90;999.90;;;7.80;93.30;;;;;;5024595;28;20280;-79
2021/04/15 09:50:27;;;;;;;1999.90;999.90;;;7.70;93.40;;;;;;5024664;28;20174;-79
2021/04/15 09:53:28;;;;;;;1999.90;999.90;;;7.60;95.60;;;;;;5024826;28;20161;-79
2021/04/15 09:56:28;;;;;;;1999.90;999.90;;;7.70;97.70;;;;;;5025170;28;20240;-79
2021/04/15 09:59:30;;;;;;;1999.90;999.90;;;7.80;92.20;;;;;;5025799;28;20146;-79
2021/04/15 10:02:25;;;;;;;1999.90;999.90;;;7.80;74.70;;;;;;5025285;28;20165;-79
2021/04/15 10:04:53;;;;;;;1999.90;999.90;;;8.00;80.50;;;;;;5025358;28;20150;-79
2021/04/15 10:07:34;;;;;;;1999.90;999.90;;;8.10;65.20;;;;;;5025452;28;20249;-79
2021/04/15 10:10:11;;;;;;;1999.90;999.90;;;8.10;60.10;;;;;;5025978;28;20166;-79
2021/04/15 10:12:55;;;;;;;1999.90;999.90;;;8.10;56.80;;;;;;5024514;28;20580;-80
2021/04/15 10:15:35;;;;;;;1999.90;999.90;;;8.20;62.10;;;;;;5025691;28;20168;-79
2021/04/15 10:18:06;;;;;;;1999.90;999.90;;;8.40;64.10;;;;;;5024670;28;20201;-79
2021/04/15 10:20:55;;;;;;;1999.90;999.90;;;8.50;57.00;;;;;;5024093;28;20150;-79
2021/04/15 10:23:39;;;;;;;1999.90;999.90;;;8.80;57.50;;;;;;5023463;28;20238;-79
2021/04/15 10:26:28;;;;;;;1999.90;999.90;;;9.20;57.50;;;;;;5022837;28;20150;-79
2021/04/15 10:29:13;;;;;;;1999.90;999.90;;;9.40;47.50;;;;;;5023799;28;20201;-79
2021/04/15 10:31:50;;;;;;;1999.90;999.90;;;9.40;34.80;;;;;;5023778;28;20158;-79
2021/04/15 10:34:59;;;;;;;1999.90;999.90;;;9.50;34.80;;;;;;5023756;28;20172;-79
2021/04/15 10:37:43;;;;;;;1999.90;999.90;;;9.50;38.50;;;;;;5023835;28;20202;-79
2021/04/15 10:40:50;;;;;;;1999.90;999.90;;;9.40;31.80;;;;;;5023635;28;20606;-79
2021/04/15 10:43:37;;;;;;;1999.90;999.90;;;9.40;25.10;;;;;;5006856;28;20173;-80
2021/04/15 10:46:18;;;;;;;1999.90;999.90;;;9.30;27.10;;;;;;5006594;28;20177;-80
2021/04/15 10:49:05;;;;;;;1999.90;999.90;;;9.30;27.20;;;;;;5023810;28;20576;-79
2021/04/15 10:51:35;;;;;;;1999.90;999.90;;;9.30;26.10;;;;;;5024062;28;20200;-80
2021/04/15 10:54:18;;;;;;;1999.90;999.90;;;9.10;26.80;;;;;;5023752;28;20165;-79
2021/04/15 10:56:48;;;;;;;1999.90;999.90;;;9.00;25.20;;;;;;5023949;28;20208;-79
2021/04/15 10:59:38;;;;;;;1999.90;999.90;;;9.30;29.10;;;;;;5024409;28;20166;-80
2021/04/15 11:02:32;;;;;;;1999.90;999.90;;;9.90;28.00;;;;;;5021734;28;20185;-79
2021/04/15 11:05:20;;;;;;;1999.90;999.90;;;10.30;21.90;;;;;;5005130;28;20548;-79
2021/04/15 11:07:48;;;;;;;1999.90;999.90;;;10.40;15.80;;;;;;5022532;28;20715;-79
2021/04/15 11:10:22;;;;;;;1999.90;999.90;;;9.90;13.00;;;;;;5005013;28;20181;-80
2021/04/15 11:12:48;;;;;;;1999.90;999.90;;;9.70;20.10;;;;;;5021636;28;20161;-80
2021/04/15 11:15:22;;;;;;;1999.90;999.90;;;10.20;26.20;;;;;;5020921;28;20180;-80
2021/04/15 11:17:50;;;;;;;1999.90;999.90;;;11.10;24.60;;;;;;5003268;28;20202;-80
2021/04/15 11:20:31;;;;;;;1999.90;999.90;;;11.90;18.20;;;;;;5020502;28;20730;-79
2021/04/15 11:23:26;;;;;;;1999.90;999.90;;;12.40;5.70;;;;;;5020906;28;20622;-80
2021/04/15 11:25:53;;;;;;;1999.90;999.90;;;12.80;1.00;;;;;;5021134;28;20154;-81
2021/04/15 11:28:22;;;;;;;1999.90;999.90;;;12.90;1.00;;;;;;5021932;28;20181;-81
2021/04/15 11:30:49;;;;;;;1999.90;999.90;;;12.30;1.00;;;;;;5005869;28;20173;-80
2021/04/15 11:33:37;;;;;;;1999.90;999.90;;;12.00;1.00;;;;;;5006981;28;20175;-78
2021/04/15 11:36:19;;;;;;;1999.90;999.90;;;11.50;1.00;;;;;;5007006;28;20170;-79
2021/04/15 11:38:48;;;;;;;1999.90;999.90;;;11.10;1.00;;;;;;5024687;28;20562;-80
2021/04/15 11:41:20;;;;;;;1999.90;999.90;;;11.00;1.00;;;;;;5023990;28;20168;-79
2021/04/15 11:43:48;;;;;;;1999.90;999.90;;;10.70;1.00;;;;;;5005236;28;20169;-79
2021/04/15 11:46:36;;;;;;;1999.90;999.90;;;10.80;1.00;;;;;;5023542;28;20182;-79
2021/04/15 11:49:13;;;;;;;1999.90;999.90;;;10.60;1.00;;;;;;5006455;28;20166;-80
2021/04/15 11:52:02;;;;;;;1999.90;999.90;;;10.60;1.00;;;;;;5023529;28;20158;-79
2021/04/15 11:54:40;;;;;;;1999.90;999.90;;;11.20;1.00;;;;;;5022883;28;20213;-80
2021/04/15 11:57:15;;;;;;;1999.90;999.90;;;11.80;1.00;;;;;;5022975;28;20222;-79
2021/04/15 11:59:41;;;;;;;1999.90;999.90;;;12.20;1.00;;;;;;5022593;28;20182;-80
2021/04/15 12:02:26;;;;;;;1999.90;999.90;;;12.40;1.00;;;;;;5022268;28;20166;-79
2021/04/15 12:05:29;;;;;;;1999.90;999.90;;;12.90;1.00;;;;;;5022702;28;20150;-80
2021/04/15 12:08:34;;;;;;;1999.90;999.90;;;13.40;1.00;;;;;;5022397;28;20200;-79
2021/04/15 12:11:14;;;;;;;1999.90;999.90;;;12.90;1.00;;;;;;5023652;28;20204;-79
2021/04/15 12:13:56;;;;;;;1999.90;999.90;;;12.90;1.00;;;;;;5024000;28;20210;-79
2021/04/15 12:16:57;;;;;;;1999.90;999.90;;;12.60;1.00;;;;;;5024128;28;20202;-79
2021/04/15 12:19:35;;;;;;;1999.90;999.90;;;11.80;1.00;;;;;;5023747;28;20173;-80
2021/04/15 12:22:27;;;;;;;1999.90;999.90;;;11.40;1.00;;;;;;5007385;28;20166;-79
2021/04/15 12:25:16;;;;;;;1999.90;999.90;;;10.90;1.00;;;;;;4985771;28;20174;-79
2021/04/15 12:27:46;;;;;;;1999.90;999.90;;;10.90;1.00;;;;;;5004085;28;20189;-80
2021/04/15 12:30:19;;;;;;;1999.90;999.90;;;10.80;1.00;;;;;;5004589;28;20185;-79
2021/04/15 12:33:03;;;;;;;1999.90;999.90;;;10.90;1.00;;;;;;5024881;28;20164;-79
2021/04/15 12:35:39;;;;;;;1999.90;999.90;;;11.10;1.00;;;;;;5005989;28;20184;-79
2021/04/15 12:38:17;;;;;;;1999.90;999.90;;;11.30;1.00;;;;;;5027726;28;20204;-79
2021/04/15 12:40:46;;;;;;;1999.90;999.90;;;11.60;1.00;;;;;;5027685;28;20149;-80
2021/04/15 12:43:16;;;;;;;1999.90;999.90;;;11.80;1.00;;;;;;5009767;28;20696;-80
2021/04/15 12:45:53;;;;;;;1999.90;999.90;;;11.70;1.00;;;;;;5027920;28;20170;-79
2021/04/15 12:48:40;;;;;;;1999.90;999.90;;;11.60;1.00;;;;;;5009607;28;20525;-79
2021/04/15 12:51:08;;;;;;;1999.90;999.90;;;12.00;1.00;;;;;;5027639;28;20162;-79
2021/04/15 12:53:38;;;;;;;1999.90;999.90;;;12.00;1.00;;;;;;5026382;28;20638;-79
2021/04/15 12:56:05;;;;;;;1999.90;999.90;;;11.80;1.00;;;;;;5027117;28;20162;-79
2021/04/15 12:58:32;;;;;;;1999.90;999.90;;;11.60;1.00;;;;;;5027849;28;20166;-79
2021/04/15 13:01:00;;;;;;;1999.90;999.90;;;11.60;1.00;;;;;;5026954;28;20165;-79
2021/04/15 13:03:34;;;;;;;1999.90;999.90;;;11.40;1.00;;;;;;5027229;28;20173;-79
2021/04/15 13:06:01;;;;;;;1999.90;999.90;;;11.20;1.00;;;;;;5027816;28;20177;-78
2021/04/15 13:18:51;;;;;;;1999.90;999.90;;;11.10;1.00;;;;;;4976052;28;20566;-82